Time;durP1;ratioP1;P1;durP2;ratioP2;P2;SDS_P1;SDS_P2;PMS_P1;PMS_P2;Temp;Humidity;BMP_temperature;BMP_pressure;BME280_temperature;BME280_humidity;BME280_pressure;Samples;Min_cycle;Max_cycle;Signal;HPM_P1;HPM_P2
2021/10/09 00:00:29;;;;;;;18.27;6.00;;;;;;;9.75;75.61;102587.09;6124526;23;20154;-60
2021/10/09 00:02:54;;;;;;;17.10;6.57;;;;;;;9.67;75.75;102577.09;6122863;23;20163;-60
2021/10/09 00:05:20;;;;;;;16.37;6.33;;;;;;;9.20;75.93;102529.91;6122681;23;20711;-59
2021/10/09 00:07:45;;;;;;;14.53;7.03;;;;;;;9.46;76.54;102574.09;6124042;23;20194;-59
2021/10/09 00:10:13;;;;;;;13.80;6.70;;;;;;;9.42;76.11;102564.97;6123846;23;20192;-59
2021/10/09 00:12:38;;;;;;;19.97;6.93;;;;;;;9.30;76.53;102542.28;6123904;23;20160;-60
2021/10/09 00:15:06;;;;;;;16.73;6.50;;;;;;;9.47;76.58;102561.03;6123782;23;20225;-59
2021/10/09 00:17:31;;;;;;;14.77;6.17;;;;;;;9.34;76.19;102552.22;6122468;23;20162;-59
2021/10/09 00:19:57;;;;;;;13.47;7.07;;;;;;;9.54;76.71;102574.97;6123642;23;20158;-59
2021/10/09 00:22:22;;;;;;;16.23;6.17;;;;;;;9.50;76.13;102569.41;6124325;23;20157;-59
2021/10/09 00:24:48;;;;;;;16.00;6.27;;;;;;;9.45;76.66;102564.22;6123895;23;20179;-59
2021/10/09 00:27:13;;;;;;;18.33;6.60;;;;;;;9.54;76.26;102564.69;6123822;23;20162;-59
2021/10/09 00:29:39;;;;;;;15.33;6.33;;;;;;;9.50;75.99;102563.06;6123770;23;20243;-59
2021/10/09 00:32:05;;;;;;;18.67;6.57;;;;;;;9.49;75.99;102561.47;6123078;23;20502;-59
2021/10/09 00:34:31;;;;;;;18.93;6.20;;;;;;;9.47;76.13;102555.50;6123866;23;20161;-59
2021/10/09 00:36:56;;;;;;;17.20;6.57;;;;;;;9.06;76.68;102496.56;6123786;23;20639;-60
2021/10/09 00:39:22;;;;;;;13.20;5.80;;;;;;;9.49;76.46;102553.19;6124043;23;20182;-59
2021/10/09 00:41:47;;;;;;;12.53;5.50;;;;;;;9.58;75.95;102548.16;6123593;23;20151;-59
2021/10/09 00:44:16;;;;;;;16.50;5.93;;;;;;;9.54;76.01;102553.63;6123591;23;20155;-59
2021/10/09 00:46:43;;;;;;;13.10;6.60;;;;;;;9.45;76.66;102550.38;6123970;23;20529;-59
2021/10/09 00:49:16;;;;;;;14.50;6.43;;;;;;;9.31;76.68;102555.75;6123615;23;20622;-59
2021/10/09 00:51:47;;;;;;;13.13;5.87;;;;;;;9.42;76.58;102556.66;6123561;23;20215;-59
2021/10/09 00:54:15;;;;;;;17.60;6.13;;;;;;;9.28;76.56;102512.22;6123138;23;20154;-59
2021/10/09 00:56:42;;;;;;;13.57;5.83;;;;;;;9.51;76.45;102542.50;6123487;23;20150;-59
2021/10/09 00:59:11;;;;;;;16.30;7.03;;;;;;;9.48;76.58;102544.06;6123721;23;20234;-59
2021/10/09 01:01:36;;;;;;;14.70;6.23;;;;;;;9.45;76.72;102544.84;6121823;23;20158;-59
2021/10/09 01:04:06;;;;;;;18.70;6.07;;;;;;;9.25;76.69;102504.69;6122781;23;20155;-59
2021/10/09 01:06:32;;;;;;;15.23;6.43;;;;;;;9.54;76.51;102539.00;6124003;23;20186;-59
2021/10/09 01:08:58;;;;;;;15.60;6.50;;;;;;;9.56;76.47;102534.69;6121820;23;20557;-59
2021/10/09 01:11:23;;;;;;;14.80;6.27;;;;;;;9.57;76.39;102543.75;6122831;23;20264;-59
2021/10/09 01:13:49;;;;;;;20.93;6.37;;;;;;;9.53;76.62;102542.94;6123595;23;20180;-59
2021/10/09 01:16:20;;;;;;;22.07;6.43;;;;;;;9.60;76.37;102541.06;6123666;23;20237;-59
2021/10/09 01:18:53;;;;;;;16.27;6.13;;;;;;;9.58;76.20;102535.09;6123608;23;20678;-59
2021/10/09 01:21:19;;;;;;;12.87;6.33;;;;;;;9.55;76.13;102535.06;6122999;23;20618;-59
2021/10/09 01:23:45;;;;;;;18.43;6.17;;;;;;;9.49;76.10;102537.34;6123795;23;20236;-59
2021/10/09 01:26:11;;;;;;;12.10;5.97;;;;;;;9.58;76.11;102534.31;6123019;23;20186;-58
2021/10/09 01:28:38;;;;;;;17.27;6.53;;;;;;;9.46;75.86;102529.81;6123653;23;20159;-58
2021/10/09 01:31:04;;;;;;;16.03;6.30;;;;;;;9.18;76.34;102495.50;6122250;23;20256;-59
2021/10/09 01:33:30;;;;;;;14.93;6.10;;;;;;;9.52;76.20;102528.31;6123291;23;20172;-59
2021/10/09 01:35:57;;;;;;;13.30;6.23;;;;;;;9.11;76.39;102476.03;6123060;23;20155;-59
2021/10/09 01:38:27;;;;;;;12.63;6.40;;;;;;;9.52;76.40;102524.72;6123506;23;20151;-59
2021/10/09 01:40:53;;;;;;;19.47;6.07;;;;;;;9.47;76.44;102525.88;6122901;23;20217;-58
2021/10/09 01:43:21;;;;;;;15.83;6.20;;;;;;;9.46;76.30;102527.06;6123191;23;20213;-58
2021/10/09 01:45:47;;;;;;;11.03;5.93;;;;;;;9.48;76.30;102523.91;6123028;23;20258;-59
2021/10/09 01:48:14;;;;;;;16.73;6.17;;;;;;;9.50;76.22;102519.59;6123224;23;20151;-59
2021/10/09 01:50:41;;;;;;;13.37;6.23;;;;;;;9.49;75.92;102515.22;6122906;23;20403;-59
2021/10/09 01:53:07;;;;;;;15.70;6.23;;;;;;;9.41;75.79;102505.25;6123184;23;20498;-58
2021/10/09 01:55:37;;;;;;;11.37;5.93;;;;;;;9.67;76.38;102516.19;6122865;23;20147;-58
2021/10/09 01:58:04;;;;;;;11.27;5.70;;;;;;;9.45;75.65;102475.66;6122763;23;20174;-59
2021/10/09 02:00:30;;;;;;;17.40;5.73;;;;;;;9.77;75.72;102511.94;6121667;23;20269;-58
2021/10/09 02:03:01;;;;;;;14.40;6.10;;;;;;;9.83;75.31;102516.75;6122469;23;20544;-59
2021/10/09 02:05:27;;;;;;;12.57;6.00;;;;;;;9.51;75.16;102487.16;6123105;23;20696;-59
2021/10/09 02:07:53;;;;;;;14.37;6.50;;;;;;;9.37;75.35;102476.75;6121091;23;20162;-59
2021/10/09 02:10:18;;;;;;;15.47;6.10;;;;;;;9.65;75.33;102513.03;6123127;23;20158;-59
2021/10/09 02:12:44;;;;;;;13.60;6.00;;;;;;;9.63;75.05;102506.28;6122652;23;20164;-60
2021/10/09 02:15:16;;;;;;;12.73;6.03;;;;;;;9.69;75.27;102519.38;6120624;23;20160;-58
2021/10/09 02:25:46;;;;;;;11.27;5.47;;;;;;;9.68;75.21;102503.16;6122811;23;20179;-59
2021/10/09 02:28:19;;;;;;;13.43;5.70;;;;;;;9.73;75.45;102506.38;6121146;23;20179;-59
2021/10/09 02:30:45;;;;;;;13.97;5.60;;;;;;;9.65;75.23;102492.84;6122246;23;20195;-59
2021/10/09 02:33:11;;;;;;;14.43;5.60;;;;;;;9.76;75.56;102502.84;6122608;23;20225;-59
2021/10/09 02:35:37;;;;;;;22.43;6.10;;;;;;;9.79;75.79;102506.81;6122848;23;20147;-58
2021/10/09 02:38:04;;;;;;;14.00;6.03;;;;;;;9.84;75.40;102509.25;6122332;23;20211;-59
2021/10/09 02:40:30;;;;;;;12.67;5.47;;;;;;;9.82;75.53;102501.31;6123158;23;20162;-59
2021/10/09 02:42:56;;;;;;;13.47;5.67;;;;;;;9.28;75.18;102428.44;6122261;23;20546;-59
2021/10/09 02:45:22;;;;;;;13.20;5.50;;;;;;;9.42;74.80;102465.34;6122685;23;20184;-59
2021/10/09 02:47:47;;;;;;;12.13;5.40;;;;;;;9.73;74.98;102483.44;6122853;23;20590;-58
2021/10/09 02:50:14;;;;;;;14.20;6.03;;;;;;;9.79;75.20;102501.28;6122476;23;20155;-58
2021/10/09 02:52:40;;;;;;;11.80;5.77;;;;;;;9.74;75.17;102501.63;6122171;23;20231;-59
2021/10/09 02:55:07;;;;;;;13.30;5.97;;;;;;;9.76;75.52;102502.84;6122284;23;20150;-58
2021/10/09 02:57:32;;;;;;;13.00;6.00;;;;;;;9.75;75.25;102501.25;6122312;23;20154;-59
2021/10/09 02:59:58;;;;;;;9.63;5.53;;;;;;;9.74;75.62;102498.88;6122459;23;20163;-59
2021/10/09 03:02:23;;;;;;;13.87;4.97;;;;;;;9.71;75.36;102492.13;6122359;23;20237;-58
2021/10/09 03:04:49;;;;;;;14.87;6.43;;;;;;;9.73;75.28;102497.28;6122401;23;20341;-59
2021/10/09 03:07:14;;;;;;;11.60;5.13;;;;;;;9.65;75.23;102490.88;6122471;23;20600;-59
2021/10/09 03:09:40;;;;;;;14.00;5.50;;;;;;;9.48;75.68;102472.09;6122615;23;20159;-59
2021/10/09 03:12:05;;;;;;;12.47;5.60;;;;;;;9.67;75.64;102494.06;6121636;23;20555;-58
2021/10/09 03:14:31;;;;;;;9.50;5.73;;;;;;;9.66;76.03;102494.44;6123034;23;20158;-59
2021/10/09 03:16:56;;;;;;;12.90;5.83;;;;;;;9.60;76.25;102491.22;6122298;23;20172;-59
2021/10/09 03:19:22;;;;;;;13.80;5.70;;;;;;;9.50;75.92;102468.97;6122296;23;20176;-59
2021/10/09 03:21:48;;;;;;;8.93;5.53;;;;;;;9.58;75.90;102484.47;6122036;23;20650;-59
2021/10/09 03:24:13;;;;;;;9.57;5.73;;;;;;;9.60;76.53;102493.19;6122101;23;20150;-59
2021/10/09 03:26:39;;;;;;;12.77;5.97;;;;;;;9.39;76.22;102468.84;6122151;23;20659;-58
2021/10/09 03:29:05;;;;;;;14.20;5.80;;;;;;;9.46;76.44;102493.84;6121910;23;20599;-59
2021/10/09 03:31:30;;;;;;;15.10;5.80;;;;;;;9.38;76.71;102486.63;6121779;23;20170;-59
2021/10/09 03:33:56;;;;;;;11.50;5.70;;;;;;;9.26;76.81;102480.56;6122109;23;20174;-59
2021/10/09 03:36:21;;;;;;;11.27;6.00;;;;;;;9.40;76.91;102487.06;6122407;23;20151;-60
2021/10/09 03:38:47;;;;;;;12.67;6.23;;;;;;;9.24;77.04;102460.78;6122415;23;20628;-60
2021/10/09 03:41:14;;;;;;;17.60;6.60;;;;;;;9.58;77.08;102495.56;6121680;23;20159;-60
2021/10/09 03:43:42;;;;;;;13.93;5.90;;;;;;;9.60;76.57;102491.22;6122249;23;20376;-59
2021/10/09 03:46:22;;;;;;;10.27;5.47;;;;;;;9.42;76.29;102484.69;6122137;23;20189;-59
2021/10/09 03:54:02;;;;;;;13.37;7.30;;;;;;;9.67;76.34;102490.47;6121904;23;20281;-60
2021/10/09 03:56:28;;;;;;;16.80;7.63;;;;;;;9.29;76.62;102424.47;6121995;23;20183;-59
2021/10/09 03:58:53;;;;;;;13.17;7.03;;;;;;;9.59;76.50;102475.78;6121959;23;20508;-59
2021/10/09 04:01:19;;;;;;;17.03;7.90;;;;;;;9.50;76.54;102483.63;6120236;23;20159;-59
2021/10/09 04:03:44;;;;;;;14.83;7.90;;;;;;;9.50;77.21;102477.28;6121885;23;20154;-59
2021/10/09 04:06:10;;;;;;;14.17;7.37;;;;;;;9.63;77.67;102484.91;6121857;23;20646;-59
2021/10/09 04:08:36;;;;;;;14.60;7.50;;;;;;;9.62;76.91;102482.50;6122322;23;20157;-59
2021/10/09 04:11:01;;;;;;;15.10;7.67;;;;;;;9.44;76.84;102476.81;6121741;23;20238;-60
2021/10/09 04:13:26;;;;;;;15.63;8.10;;;;;;;9.36;76.60;102489.00;6122263;23;20157;-59
2021/10/09 04:15:52;;;;;;;15.10;8.23;;;;;;;9.34;76.99;102487.78;6121847;23;20155;-60
2021/10/09 04:18:17;;;;;;;15.37;8.07;;;;;;;8.99;77.10;102452.22;6122253;23;20164;-59
2021/10/09 04:20:43;;;;;;;18.50;8.60;;;;;;;9.08;77.28;102474.81;6122035;23;20157;-59
2021/10/09 04:23:08;;;;;;;11.90;7.40;;;;;;;9.13;77.34;102490.31;6121917;23;20238;-59
2021/10/09 04:25:34;;;;;;;15.40;7.80;;;;;;;8.98;77.44;102469.97;6122253;23;20188;-59
2021/10/09 04:28:00;;;;;;;14.63;7.93;;;;;;;8.93;77.24;102475.88;6121667;23;20169;-60
2021/10/09 04:30:25;;;;;;;14.70;8.13;;;;;;;8.45;77.86;102409.69;6122038;23;20201;-59
2021/10/09 04:32:51;;;;;;;20.20;8.80;;;;;;;8.96;78.34;102499.19;6121281;23;20157;-59
2021/10/09 04:35:17;;;;;;;11.63;8.33;;;;;;;8.95;78.39;102494.81;6120303;23;20271;-59
2021/10/09 04:37:42;;;;;;;14.73;7.70;;;;;;;8.99;78.43;102492.91;6120508;23;20175;-59
2021/10/09 04:40:09;;;;;;;19.33;8.27;;;;;;;8.76;78.61;102468.13;6123748;23;20158;-59
2021/10/09 04:42:34;;;;;;;23.30;8.00;;;;;;;9.09;78.48;102487.50;6123583;23;20155;-60
2021/10/09 04:45:00;;;;;;;13.23;7.33;;;;;;;9.18;78.23;102501.03;6123441;23;20624;-59
2021/10/09 04:47:26;;;;;;;11.43;7.30;;;;;;;9.16;78.12;102492.31;6124004;23;20156;-60
2021/10/09 04:49:51;;;;;;;19.87;7.50;;;;;;;9.19;77.80;102499.84;6123848;23;20219;-59
2021/10/09 04:52:17;;;;;;;11.53;7.27;;;;;;;9.15;77.83;102502.59;6123236;23;20155;-59
2021/10/09 04:54:42;;;;;;;15.33;7.60;;;;;;;9.17;78.13;102505.00;6123762;23;20162;-60
2021/10/09 04:57:08;;;;;;;12.10;6.70;;;;;;;9.17;78.33;102494.69;6123156;23;20190;-60
2021/10/09 04:59:33;;;;;;;14.03;7.13;;;;;;;9.17;78.58;102505.00;6123698;23;20154;-59
2021/10/09 05:01:59;;;;;;;13.30;7.47;;;;;;;9.22;78.53;102502.66;6123068;23;20169;-59
2021/10/09 05:04:24;;;;;;;13.07;7.50;;;;;;;9.19;78.44;102491.56;6123457;23;20576;-59
2021/10/09 05:06:50;;;;;;;14.47;7.03;;;;;;;9.23;78.35;102503.47;6123393;23;20254;-59
2021/10/09 05:09:15;;;;;;;16.00;7.40;;;;;;;9.22;78.20;102499.91;6123313;23;20158;-59
2021/10/09 05:11:41;;;;;;;14.63;7.67;;;;;;;9.12;78.46;102499.78;6123179;23;20157;-59
2021/10/09 05:14:06;;;;;;;17.53;7.80;;;;;;;9.23;78.29;102500.69;6123315;23;20159;-59
2021/10/09 05:16:31;;;;;;;14.27;7.07;;;;;;;9.35;78.46;102495.72;6122031;23;20238;-59
2021/10/09 05:18:57;;;;;;;11.13;7.30;;;;;;;9.21;78.65;102473.41;6123685;23;20155;-59
2021/10/09 05:21:22;;;;;;;11.30;6.73;;;;;;;9.48;77.99;102505.31;6123014;23;20150;-59
2021/10/09 05:23:48;;;;;;;14.83;7.67;;;;;;;9.39;77.86;102479.13;6123842;23;20162;-59
2021/10/09 05:26:14;;;;;;;13.90;7.20;;;;;;;9.48;77.44;102487.94;6123293;23;20183;-59
2021/10/09 05:31:09;;;;;;;13.37;7.30;;;;;;;9.51;77.56;102487.16;6122520;23;20199;-59
2021/10/09 05:33:37;;;;;;;13.60;6.43;;;;;;;9.19;77.81;102433.47;6123317;23;20178;-59
2021/10/09 05:36:03;;;;;;;14.17;7.20;;;;;;;9.57;77.80;102478.13;6122769;23;20595;-59
2021/10/09 05:38:29;;;;;;;12.77;6.53;;;;;;;9.71;77.73;102500.44;6123518;23;20230;-59
2021/10/09 05:40:55;;;;;;;13.37;7.10;;;;;;;9.34;77.46;102457.34;6122839;23;20192;-59
2021/10/09 05:43:21;;;;;;;14.33;7.43;;;;;;;9.85;77.73;102521.91;6123158;23;20184;-59
2021/10/09 05:45:47;;;;;;;13.03;6.90;;;;;;;9.82;77.75;102509.63;6123132;23;20187;-59
2021/10/09 05:48:13;;;;;;;17.20;7.60;;;;;;;9.78;77.86;102516.31;6123023;23;20601;-60
2021/10/09 05:58:52;;;;;;;14.27;7.43;;;;;;;9.87;77.40;102514.00;6099332;23;20162;-59
2021/10/09 07:00:13;;;;;;;10.77;7.13;;;;;;;10.30;75.76;102535.38;6104598;23;20580;-59
2021/10/09 07:02:40;;;;;;;9.03;5.53;;;;;;;10.14;75.45;102507.94;6102145;23;20171;-59
2021/10/09 07:05:08;;;;;;;11.73;6.80;;;;;;;10.33;74.85;102549.25;6111785;23;20184;-59
2021/10/09 07:07:41;;;;;;;13.93;6.67;;;;;;;10.41;75.20;102547.34;6112654;23;20161;-59
2021/10/09 07:10:08;;;;;;;10.17;6.43;;;;;;;10.20;75.17;102517.47;6116286;23;20615;-60
2021/10/09 07:12:34;;;;;;;11.20;7.00;;;;;;;10.28;75.17;102549.63;6116149;23;20216;-59
2021/10/09 07:15:00;;;;;;;11.63;6.50;;;;;;;10.30;75.08;102550.03;6116858;23;20158;-59
2021/10/09 07:17:25;;;;;;;12.87;7.13;;;;;;;10.27;75.36;102516.75;6114628;23;20188;-60
2021/10/09 07:19:51;;;;;;;13.83;7.13;;;;;;;10.40;75.08;102532.69;6115824;23;20238;-59
2021/10/09 07:22:17;;;;;;;10.20;7.37;;;;;;;10.37;75.07;102546.50;6116999;23;20484;-60
2021/10/09 07:24:42;;;;;;;11.13;6.77;;;;;;;10.49;74.70;102549.78;6116246;23;20563;-59
2021/10/09 07:27:08;;;;;;;13.70;7.70;;;;;;;10.57;75.41;102554.19;6112385;23;20164;-60
2021/10/09 07:29:33;;;;;;;14.20;6.80;;;;;;;10.36;75.00;102514.44;6110731;23;20203;-60
2021/10/09 07:32:00;;;;;;;12.33;6.47;;;;;;;10.60;75.12;102558.97;6112306;23;20219;-59
2021/10/09 07:34:26;;;;;;;12.00;6.83;;;;;;;10.47;74.75;102532.75;6114940;23;20169;-59
2021/10/09 07:36:51;;;;;;;12.73;6.67;;;;;;;10.69;74.61;102559.41;6114725;23;20161;-60
2021/10/09 07:39:17;;;;;;;11.50;6.93;;;;;;;10.62;74.54;102561.34;6109635;23;20187;-60
2021/10/09 07:41:42;;;;;;;11.73;7.10;;;;;;;10.68;73.74;102551.47;6114677;23;20164;-59
2021/10/09 07:44:08;;;;;;;12.93;6.63;;;;;;;10.70;73.61;102554.66;6114622;23;20162;-60
2021/10/09 07:46:33;;;;;;;12.63;7.00;;;;;;;10.69;73.93;102555.84;6113616;23;20200;-59
2021/10/09 07:48:59;;;;;;;10.73;7.00;;;;;;;10.63;73.79;102558.19;6113856;23;20667;-60
2021/10/09 07:51:24;;;;;;;12.70;6.43;;;;;;;10.68;74.02;102559.78;6114275;23;20263;-60
2021/10/09 07:53:50;;;;;;;14.40;7.70;;;;;;;10.53;73.99;102556.16;6116637;23;20162;-59
2021/10/09 07:56:15;;;;;;;12.93;7.73;;;;;;;10.57;74.83;102558.94;6115701;23;20228;-60
2021/10/09 07:58:41;;;;;;;13.13;7.40;;;;;;;10.65;74.17;102560.59;6112550;23;20176;-60
2021/10/09 08:01:06;;;;;;;13.33;6.97;;;;;;;10.63;74.44;102562.94;6110241;23;20511;-60
2021/10/09 08:03:32;;;;;;;12.73;6.97;;;;;;;10.72;74.21;102558.63;6106572;23;20162;-59
2021/10/09 08:05:57;;;;;;;11.77;6.93;;;;;;;10.75;74.05;102559.84;6112198;23;20192;-59
2021/10/09 08:08:23;;;;;;;15.47;8.23;;;;;;;10.58;74.60;102561.34;6110067;23;20155;-60
2021/10/09 08:10:50;;;;;;;12.43;7.40;;;;;;;10.44;74.38;102554.88;6115708;23;20192;-60
2021/10/09 08:13:16;;;;;;;12.93;7.20;;;;;;;10.46;74.99;102558.84;6116179;23;20157;-60
2021/10/09 08:15:42;;;;;;;13.77;7.47;;;;;;;10.27;74.81;102520.31;6114392;23;20163;-60
2021/10/09 08:18:09;;;;;;;12.63;7.73;;;;;;;10.41;74.74;102541.78;6110708;23;20165;-59
2021/10/09 08:20:36;;;;;;;12.27;7.47;;;;;;;10.22;75.04;102533.72;6114910;23;20223;-59
2021/10/09 08:23:06;;;;;;;12.87;7.80;;;;;;;10.44;75.20;102541.00;6116635;23;20186;-59
2021/10/09 08:41:12;;;;;;;12.80;6.20;;;;;;;10.76;74.59;102562.22;6118539;23;20229;-60
2021/10/09 08:43:46;;;;;;;11.27;5.90;;;;;;;10.79;74.67;102567.00;6112262;23;20252;-60
2021/10/09 08:46:12;;;;;;;9.13;5.50;;;;;;;10.24;75.16;102509.22;6118700;23;20174;-61
2021/10/09 08:48:47;;;;;;;9.13;5.60;;;;;;;10.59;74.68;102517.75;6116305;23;20185;-61
2021/10/09 08:51:18;;;;;;;9.47;5.27;;;;;;;10.92;74.32;102559.16;6118055;23;20219;-60
2021/10/09 08:53:44;;;;;;;7.47;4.80;;;;;;;10.81;73.88;102567.41;6115954;23;20579;-60
2021/10/09 08:56:26;;;;;;;6.60;4.87;;;;;;;10.77;74.19;102560.25;6117775;23;20157;-60
2021/10/09 08:59:05;;;;;;;8.80;5.07;;;;;;;10.78;74.24;102573.75;6112484;23;20144;-60
2021/10/09 09:01:37;;;;;;;7.87;5.33;;;;;;;10.80;74.24;102570.56;6117885;23;20596;-59
2021/10/09 09:04:14;;;;;;;8.07;5.03;;;;;;;10.75;74.67;102570.94;6116935;23;20178;-60
2021/10/09 09:26:28;;;;;;;8.67;4.53;;;;;;;10.64;75.53;102568.09;6117696;23;20188;-60
2021/10/09 09:40:20;;;;;;;9.73;5.07;;;;;;;10.57;75.22;102545.88;6089193;23;20157;-60
2021/10/09 09:42:52;;;;;;;9.40;5.27;;;;;;;10.72;75.65;102566.16;6064001;23;20166;-59
2021/10/09 09:45:25;;;;;;;8.10;4.90;;;;;;;10.74;75.31;102550.72;6087493;23;20186;-59
2021/10/09 09:47:56;;;;;;;9.03;4.93;;;;;;;10.73;74.99;102567.75;6087773;23;20194;-59
2021/10/09 09:50:22;;;;;;;8.50;4.90;;;;;;;10.82;74.82;102562.66;6088187;23;20162;-60
2021/10/09 09:52:48;;;;;;;7.67;5.53;;;;;;;10.46;74.69;102530.34;6086077;23;20234;-60
2021/10/09 09:55:18;;;;;;;9.33;5.13;;;;;;;10.27;74.78;102475.19;6084467;23;20171;-60
2021/10/09 09:57:44;;;;;;;9.70;4.73;;;;;;;10.46;74.32;102520.03;6079141;23;20257;-60
2021/10/09 10:00:12;;;;;;;8.70;4.43;;;;;;;10.21;74.99;102498.91;6085509;23;20247;-59
2021/10/09 10:02:44;;;;;;;9.07;5.20;;;;;;;10.61;75.65;102557.75;6089187;23;20153;-60
2021/10/09 10:05:12;;;;;;;7.87;5.03;;;;;;;10.47;75.14;102513.34;6089787;23;20232;-59
2021/10/09 10:07:38;;;;;;;10.00;5.33;;;;;;;10.98;74.81;102569.50;6087447;23;20154;-60
2021/10/09 10:10:04;;;;;;;10.47;5.10;;;;;;;10.79;74.88;102571.75;6088260;23;20180;-59
2021/10/09 10:12:30;;;;;;;8.10;4.77;;;;;;;10.99;74.67;102570.28;6090145;23;20616;-60
2021/10/09 10:14:58;;;;;;;10.63;5.33;;;;;;;10.84;75.03;102571.38;6091389;23;20158;-60
2021/10/09 10:17:37;;;;;;;10.27;5.13;;;;;;;10.95;75.15;102575.81;6090155;23;20158;-59
2021/10/09 10:20:05;;;;;;;7.37;4.67;;;;;;;10.92;75.36;102573.03;6090284;23;20189;-59
2021/10/09 10:22:30;;;;;;;5.97;4.20;;;;;;;11.13;74.89;102567.59;6091945;23;20159;-60
2021/10/09 10:24:56;;;;;;;7.17;4.70;;;;;;;10.75;74.92;102552.31;6091081;23;20169;-60
2021/10/09 10:27:37;;;;;;;7.70;4.50;;;;;;;10.75;74.48;102568.97;6090546;23;20346;-60
2021/10/09 10:30:14;;;;;;;8.73;5.03;;;;;;;10.84;74.88;102566.66;6102707;23;20205;-60
2021/10/09 10:33:00;;;;;;;11.33;5.23;;;;;;;10.94;74.73;102567.88;6120282;23;20156;-60
2021/10/09 10:35:31;;;;;;;10.00;5.00;;;;;;;10.91;74.60;102575.00;6115010;23;20626;-60
2021/10/09 10:38:05;;;;;;;12.47;5.73;;;;;;;10.82;74.88;102574.53;6118741;23;20681;-60
2021/10/09 10:40:49;;;;;;;10.57;5.70;;;;;;;11.01;74.68;102567.94;6118025;23;20512;-59
2021/10/09 10:43:31;;;;;;;8.00;5.40;;;;;;;10.99;74.57;102570.28;6119790;23;20508;-60
2021/10/09 10:48:57;;;;;;;10.47;5.33;;;;;;;10.76;74.37;102572.53;6113368;23;20174;-60
2021/10/09 10:57:03;;;;;;;14.57;5.93;;;;;;;10.67;75.08;102566.53;6119025;23;20168;-60
2021/10/09 10:59:46;;;;;;;10.57;5.97;;;;;;;10.90;74.85;102559.53;6117823;23;20137;-59
2021/10/09 11:02:18;;;;;;;11.33;5.87;;;;;;;10.76;74.47;102558.69;6118974;23;20145;-60
2021/10/09 11:04:46;;;;;;;11.90;6.60;;;;;;;10.65;74.57;102560.59;6120062;23;20451;-61
2021/10/09 11:07:12;;;;;;;11.37;6.03;;;;;;;10.86;74.32;102566.25;6120635;23;20181;-60
2021/10/09 11:09:39;;;;;;;13.47;6.57;;;;;;;10.74;75.05;102561.03;6120054;23;20164;-60
2021/10/09 11:12:20;;;;;;;12.23;6.93;;;;;;;10.73;74.61;102560.25;6119282;23;20637;-60
2021/10/09 11:14:45;;;;;;;11.50;6.43;;;;;;;10.69;74.66;102564.97;6120083;23;20221;-60
2021/10/09 11:17:11;;;;;;;13.73;7.30;;;;;;;10.84;74.85;102558.31;6120276;23;20626;-60
2021/10/09 11:19:42;;;;;;;12.80;6.50;;;;;;;10.76;74.32;102555.91;6121241;23;20173;-59
2021/10/09 11:22:09;;;;;;;14.50;6.73;;;;;;;10.92;74.54;102545.28;6119761;23;20153;-60
2021/10/09 11:24:48;;;;;;;11.73;6.50;;;;;;;10.88;74.48;102553.59;6121183;23;20225;-60
2021/10/09 11:27:16;;;;;;;16.80;7.07;;;;;;;10.89;74.36;102551.59;6121278;23;20610;-60
2021/10/09 11:29:59;;;;;;;12.63;7.07;;;;;;;10.90;74.88;102550.41;6119352;23;20207;-60
2021/10/09 11:32:30;;;;;;;13.80;6.73;;;;;;;10.90;74.96;102556.75;6121026;23;20596;-60
2021/10/09 11:34:55;;;;;;;11.93;7.00;;;;;;;10.74;74.21;102519.41;6121222;23;20161;-59
2021/10/09 11:37:21;;;;;;;14.37;6.83;;;;;;;10.69;74.04;102559.41;6121561;23;20708;-60
2021/10/09 11:39:49;;;;;;;12.37;7.27;;;;;;;10.61;74.51;102548.66;6121579;23;20217;-60
2021/10/09 11:42:16;;;;;;;16.03;7.93;;;;;;;10.68;74.46;102554.25;6120416;23;20157;-60
2021/10/09 11:44:52;;;;;;;12.63;7.23;;;;;;;10.41;74.63;102556.44;6120837;23;20235;-59
2021/10/09 11:55:29;;;;;;;15.50;8.03;;;;;;;10.66;75.76;102567.72;6121055;23;20607;-60
2021/10/09 11:57:56;;;;;;;16.73;8.27;;;;;;;10.46;75.69;102552.53;6120764;23;20240;-60
2021/10/09 12:00:28;;;;;;;11.90;7.40;;;;;;;10.47;75.57;102565.19;6120989;23;20151;-60
2021/10/09 12:02:58;;;;;;;15.27;7.50;;;;;;;10.49;75.44;102566.41;6120036;23;20601;-60
2021/10/09 12:05:34;;;;;;;13.77;7.80;;;;;;;10.46;75.53;102574.69;6121285;23;20567;-60
2021/10/09 12:08:28;;;;;;;12.43;7.73;;;;;;;10.26;75.63;102527.03;6121154;23;20140;-60
2021/10/09 12:11:24;;;;;;;13.90;7.97;;;;;;;10.50;75.95;102561.66;6120239;23;20166;-59
2021/10/09 12:13:55;;;;;;;14.40;8.13;;;;;;;10.34;75.72;102525.09;6120847;23;20193;-60
2021/10/09 12:16:47;;;;;;;18.93;7.83;;;;;;;10.43;75.56;102565.19;6121404;23;20161;-60
2021/10/09 12:19:27;;;;;;;15.47;8.80;;;;;;;10.22;75.89;102544.81;6119791;23;20561;-60
2021/10/09 12:21:52;;;;;;;18.73;7.80;;;;;;;10.39;75.71;102561.59;6144092;23;20142;-60
2021/10/09 12:24:24;;;;;;;14.80;8.50;;;;;;;10.18;75.74;102511.53;6120968;23;20160;-60
2021/10/09 12:27:17;;;;;;;16.23;8.20;;;;;;;10.23;75.85;102563.03;6121070;23;20244;-60
2021/10/09 12:30:08;;;;;;;15.27;7.97;;;;;;;10.22;76.19;102555.91;6121476;23;20682;-59
2021/10/09 12:32:44;;;;;;;13.73;8.00;;;;;;;10.22;76.54;102570.56;6121025;23;20148;-59
2021/10/09 12:35:12;;;;;;;12.67;8.20;;;;;;;10.29;76.25;102567.03;6121062;23;20157;-60
2021/10/09 12:37:53;;;;;;;14.37;7.60;;;;;;;10.33;76.39;102559.53;6120180;23;20164;-61
2021/10/09 12:40:19;;;;;;;15.20;7.80;;;;;;;10.27;76.45;102564.66;6121931;23;20172;-59
2021/10/09 12:42:50;;;;;;;14.73;8.13;;;;;;;10.27;76.27;102538.91;6121485;23;20164;-60
2021/10/09 12:45:17;;;;;;;11.57;7.57;;;;;;;10.38;76.07;102562.75;6121165;23;20703;-60
2021/10/09 12:47:43;;;;;;;13.00;7.47;;;;;;;10.51;75.80;102572.34;6121927;23;20224;-60
2021/10/09 12:50:09;;;;;;;13.17;6.90;;;;;;;10.41;75.53;102544.56;6121904;23;20583;-60
2021/10/09 12:52:35;;;;;;;12.07;6.90;;;;;;;10.67;75.01;102569.31;6121690;23;20228;-59
2021/10/09 12:55:03;;;;;;;13.20;7.17;;;;;;;10.60;75.09;102555.41;6120476;23;20193;-59
2021/10/09 12:57:31;;;;;;;15.07;7.13;;;;;;;10.60;75.14;102564.50;6121819;23;20157;-59
2021/10/09 12:59:58;;;;;;;12.40;7.07;;;;;;;10.66;75.12;102560.19;6123142;23;20151;-59
2021/10/09 13:02:23;;;;;;;11.93;7.03;;;;;;;10.72;74.84;102555.06;6123427;23;20181;-60
2021/10/09 13:04:49;;;;;;;18.10;7.93;;;;;;;10.69;74.82;102553.88;6122678;23;20161;-60
2021/10/09 13:07:14;;;;;;;16.57;7.50;;;;;;;10.64;75.12;102559.78;6123383;23;20185;-60
2021/10/09 13:09:40;;;;;;;11.97;7.97;;;;;;;10.73;75.25;102562.22;6123884;23;20168;-60
2021/10/09 13:12:08;;;;;;;11.57;7.50;;;;;;;10.59;75.12;102565.69;6122710;23;20157;-59
2021/10/09 13:14:34;;;;;;;18.57;8.47;;;;;;;10.54;75.40;102560.50;6123160;23;20153;-60
2021/10/09 13:16:59;;;;;;;13.40;8.47;;;;;;;10.19;75.49;102526.19;6122791;23;20157;-59
2021/10/09 13:19:25;;;;;;;14.50;8.90;;;;;;;10.06;75.95;102530.44;6123368;23;20166;-59
2021/10/09 13:21:51;;;;;;;16.10;8.53;;;;;;;10.14;76.19;102505.16;6123532;23;20540;-60
2021/10/09 13:24:16;;;;;;;15.53;8.83;;;;;;;10.50;76.51;102570.00;6122915;23;20244;-59
2021/10/09 13:26:42;;;;;;;13.17;8.53;;;;;;;10.72;76.02;102561.41;6123118;23;20235;-60
2021/10/09 13:29:07;;;;;;;14.23;9.67;;;;;;;10.76;75.27;102567.78;6123079;23;20155;-59
2021/10/09 13:31:33;;;;;;;14.50;8.97;;;;;;;10.71;74.73;102559.03;6121473;23;20162;-60
2021/10/09 13:33:59;;;;;;;14.70;9.03;;;;;;;10.54;74.74;102535.56;6123003;23;20584;-59
2021/10/09 13:36:25;;;;;;;19.50;9.50;;;;;;;10.82;74.27;102563.44;6122820;23;20149;-61
2021/10/09 13:38:51;;;;;;;14.63;9.33;;;;;;;10.91;74.25;102561.13;6123328;23;20225;-60
2021/10/09 13:41:17;;;;;;;15.77;9.57;;;;;;;10.98;73.85;102565.91;6122674;23;20555;-59
2021/10/09 13:43:43;;;;;;;17.80;9.57;;;;;;;10.94;73.92;102562.31;6123454;23;20532;-60
2021/10/09 13:46:11;;;;;;;14.57;9.80;;;;;;;11.04;73.91;102558.81;6122211;23;20216;-59
2021/10/09 13:48:37;;;;;;;19.40;10.10;;;;;;;11.06;73.65;102559.25;6123574;23;20160;-59
2021/10/09 13:51:02;;;;;;;18.03;9.90;;;;;;;11.09;73.42;102564.81;6122858;23;20161;-60